createdAt,value
2018-07-27T00:02:27.879Z,98132.52
2018-07-27T00:04:56.131Z,98137.88
2018-07-27T00:07:24.323Z,98129.09
2018-07-27T00:09:52.720Z,98128.36
2018-07-27T00:12:21.065Z,98127.72
2018-07-27T00:14:49.308Z,98129.75
2018-07-27T00:17:17.628Z,98129.50
2018-07-27T00:19:45.865Z,98122.83
2018-07-27T00:22:14.199Z,98129.95
2018-07-27T00:24:42.399Z,98133.34
2018-07-27T00:27:10.601Z,98130.91
2018-07-27T00:29:38.838Z,98127.88
2018-07-27T00:32:07.081Z,98133.87
2018-07-27T00:34:35.345Z,98136.20
2018-07-27T00:37:03.615Z,98136.06
2018-07-27T00:39:31.885Z,98136.70
2018-07-27T00:42:00.080Z,98140.30
2018-07-27T00:44:28.376Z,98134.92
2018-07-27T00:46:56.602Z,98136.77
2018-07-27T00:49:24.803Z,98139.31
2018-07-27T00:51:53.088Z,98139.91
2018-07-27T00:54:21.297Z,98139.45
2018-07-27T00:56:49.686Z,98135.16
2018-07-27T00:59:17.882Z,98132.73
2018-07-27T01:01:46.061Z,98127.61
2018-07-27T01:04:14.326Z,98127.21
2018-07-27T01:06:42.733Z,98131.00
2018-07-27T01:09:11.751Z,98131.48
2018-07-27T01:11:40.044Z,98132.02
2018-07-27T01:14:08.377Z,98135.70
2018-07-27T01:16:36.781Z,98136.64
2018-07-27T01:19:05.068Z,98132.92
2018-07-27T01:21:33.376Z,98131.95
2018-07-27T01:24:01.566Z,98131.45
2018-07-27T01:26:29.817Z,98135.75
2018-07-27T01:28:58.019Z,98136.94
2018-07-27T01:31:26.219Z,98136.53
2018-07-27T01:33:54.424Z,98129.61
2018-07-27T01:36:23.017Z,98133.16
2018-07-27T01:38:51.359Z,98132.10
2018-07-27T01:41:19.608Z,98138.10
2018-07-27T01:43:47.830Z,98135.41
2018-07-27T01:46:16.200Z,98130.52
2018-07-27T01:48:44.482Z,98132.59
2018-07-27T01:51:13.933Z,98129.44
2018-07-27T01:53:42.675Z,98138.72
2018-07-27T01:56:11.761Z,98132.43
2018-07-27T01:58:40.673Z,98134.27
2018-07-27T02:01:09.794Z,98137.09
2018-07-27T02:03:39.319Z,98137.29
2018-07-27T02:06:08.814Z,98141.24
2018-07-27T02:08:37.656Z,98138.13
2018-07-27T02:11:07.009Z,98136.04
2018-07-27T02:13:36.737Z,98136.47
2018-07-27T02:16:06.364Z,98128.23
2018-07-27T02:18:35.315Z,98129.96
2018-07-27T02:21:04.069Z,98126.06
2018-07-27T02:23:32.941Z,98130.48
2018-07-27T02:26:01.709Z,98137.02
2018-07-27T02:28:31.178Z,98134.27
2018-07-27T02:31:00.120Z,98131.58
2018-07-27T02:33:29.155Z,98136.79
2018-07-27T02:35:58.106Z,98136.53
2018-07-27T02:38:26.889Z,98140.22
2018-07-27T02:40:56.338Z,98141.80
2018-07-27T02:43:25.701Z,98137.29
2018-07-27T02:45:54.457Z,98137.46
2018-07-27T02:48:23.529Z,98127.73
2018-07-27T02:50:53.603Z,98127.86
2018-07-27T02:53:22.418Z,98122.81
2018-07-27T02:55:52.115Z,98120.94
2018-07-27T02:58:21.263Z,98116.70
2018-07-27T03:00:50.683Z,98117.89
2018-07-27T03:03:21.300Z,98114.77
2018-07-27T03:05:50.960Z,98108.92
2018-07-27T03:08:20.091Z,98109.99
2018-07-27T03:10:49.823Z,98105.82
2018-07-27T03:13:19.862Z,98107.70
2018-07-27T03:15:50.496Z,98111.81
2018-07-27T03:18:19.721Z,98106.66
2018-07-27T03:20:52.425Z,98105.63
2018-07-27T03:23:21.750Z,98110.52
2018-07-27T03:25:51.141Z,98102.98
2018-07-27T03:28:20.990Z,98104.23
2018-07-27T03:30:52.358Z,98104.91
2018-07-27T03:33:26.251Z,98103.15
2018-07-27T03:35:57.602Z,98105.01
2018-07-27T03:38:26.469Z,98095.92
2018-07-27T03:40:58.730Z,98095.70
2018-07-27T03:43:27.671Z,98100.31
2018-07-27T03:45:56.555Z,98090.17
2018-07-27T03:48:26.032Z,98089.36
2018-07-27T03:50:55.061Z,98084.16
2018-07-27T03:53:24.711Z,98083.95
2018-07-27T03:55:54.135Z,98094.74
2018-07-27T03:58:24.416Z,98090.70
2018-07-27T04:00:53.714Z,98089.92
2018-07-27T04:03:23.226Z,98088.86
2018-07-27T04:05:56.417Z,98087.51
2018-07-27T04:08:25.709Z,98088.73
2018-07-27T04:10:56.355Z,98089.51
2018-07-27T04:13:26.830Z,98089.02
2018-07-27T04:15:55.505Z,98094.63
2018-07-27T04:18:24.319Z,98093.52
2018-07-27T04:20:53.240Z,98089.36
2018-07-27T04:23:22.028Z,98084.35
2018-07-27T04:25:50.713Z,98086.27
2018-07-27T04:28:20.252Z,98079.80
2018-07-27T04:30:49.608Z,98078.59
2018-07-27T04:33:19.278Z,98078.64
2018-07-27T04:35:48.836Z,98079.13
2018-07-27T04:38:17.956Z,98084.41
2018-07-27T04:40:46.685Z,98085.20
2018-07-27T04:43:16.447Z,98082.72
2018-07-27T04:45:45.421Z,98085.64
2018-07-27T04:48:14.736Z,98082.14
2018-07-27T04:50:43.773Z,98093.07
2018-07-27T04:53:12.863Z,98088.84
2018-07-27T04:55:41.575Z,98081.66
2018-07-27T04:58:11.444Z,98091.79
2018-07-27T05:00:41.259Z,98080.70
2018-07-27T05:03:10.328Z,98083.16
2018-07-27T05:05:38.993Z,98083.28
2018-07-27T05:08:08.654Z,98090.70
2018-07-27T05:10:43.011Z,98085.88
2018-07-27T05:13:11.764Z,98091.27
2018-07-27T05:15:47.923Z,98086.03
2018-07-27T05:18:17.659Z,98094.87
2018-07-27T05:20:47.220Z,98097.91
2018-07-27T05:23:16.037Z,98097.33
2018-07-27T05:25:44.801Z,98093.83
2018-07-27T05:28:13.557Z,98091.45
2018-07-27T05:30:43.143Z,98090.83
2018-07-27T05:33:13.110Z,98096.48
2018-07-27T05:35:42.046Z,98100.55
2018-07-27T05:38:10.931Z,98098.44
2018-07-27T05:40:39.882Z,98101.97
2018-07-27T05:43:08.819Z,98100.09
2018-07-27T05:45:37.575Z,98095.70
2018-07-27T05:48:06.630Z,98097.78
2018-07-27T05:50:35.538Z,98092.81
2018-07-27T05:53:04.450Z,98096.23
2018-07-27T05:55:33.422Z,98092.69
2018-07-27T05:58:02.331Z,98101.04
2018-07-27T06:00:30.948Z,98097.66
2018-07-27T06:03:00.089Z,98101.55
2018-07-27T06:05:29.343Z,98102.50
2018-07-27T06:07:58.294Z,98108.11
2018-07-27T06:10:27.280Z,98105.88
2018-07-27T06:12:56.093Z,98098.39
2018-07-27T06:15:24.862Z,98109.88
2018-07-27T06:17:53.644Z,98107.39
2018-07-27T06:20:23.017Z,98113.02
2018-07-27T06:22:52.022Z,98109.83
2018-07-27T06:25:21.154Z,98113.66
2018-07-27T06:27:50.643Z,98108.09
2018-07-27T06:30:19.845Z,98111.92
2018-07-27T06:32:48.867Z,98115.16
2018-07-27T06:35:19.106Z,98114.10
2018-07-27T06:37:47.882Z,98110.24
2018-07-27T06:40:16.920Z,98111.96
2018-07-27T06:42:45.789Z,98110.63
2018-07-27T06:45:15.228Z,98110.05
2018-07-27T06:47:44.030Z,98115.16
2018-07-27T06:50:12.804Z,98114.75
2018-07-27T06:52:41.582Z,98113.15
2018-07-27T06:55:10.303Z,98118.37
2018-07-27T06:57:39.039Z,98121.93
2018-07-27T07:00:08.708Z,98113.77
2018-07-27T07:02:37.817Z,98117.98
2018-07-27T07:05:06.770Z,98117.82
2018-07-27T07:07:35.862Z,98120.08
2018-07-27T07:10:05.120Z,98117.52
2018-07-27T07:12:35.770Z,98119.91
2018-07-27T07:15:06.164Z,98122.70
2018-07-27T07:17:35.418Z,98127.28
2018-07-27T07:20:04.809Z,98123.39
2018-07-27T07:22:33.526Z,98121.20
2018-07-27T07:25:03.011Z,98125.91
2018-07-27T07:27:32.390Z,98126.02
2018-07-27T07:30:01.228Z,98128.77
2018-07-27T07:32:29.966Z,98129.80
2018-07-27T07:34:58.815Z,98119.08
2018-07-27T07:37:27.639Z,98120.83
2018-07-27T07:39:57.123Z,98121.45
2018-07-27T07:42:26.015Z,98118.08
2018-07-27T07:44:54.848Z,98118.93
2018-07-27T07:47:23.767Z,98111.68
2018-07-27T07:49:52.637Z,98111.09
2018-07-27T07:52:21.549Z,98109.55
2018-07-27T07:54:50.543Z,98107.80
2018-07-27T07:57:19.043Z,98108.67
2018-07-27T07:59:48.344Z,98109.56
2018-07-27T08:02:16.934Z,98105.08
2018-07-27T08:04:45.478Z,98102.25
2018-07-27T08:07:14.327Z,98105.45
2018-07-27T08:09:43.157Z,98101.23
2018-07-27T08:12:11.948Z,98103.07
2018-07-27T08:14:40.584Z,98104.63
2018-07-27T08:17:09.395Z,98099.53
2018-07-27T08:19:39.185Z,98095.09
2018-07-27T08:22:07.968Z,98101.11
2018-07-27T08:24:37.083Z,98100.81
2018-07-27T08:27:07.097Z,98099.45
2018-07-27T08:29:40.403Z,98103.20
2018-07-27T08:32:09.444Z,98093.14
2018-07-27T08:34:38.533Z,98094.49
2018-07-27T08:37:07.777Z,98087.18
2018-07-27T08:39:37.950Z,98086.08
2018-07-27T08:42:06.789Z,98088.36
2018-07-27T08:44:37.803Z,98080.78
2018-07-27T08:47:06.620Z,98077.56
2018-07-27T08:49:35.345Z,98077.43
2018-07-27T08:52:04.804Z,98082.21
2018-07-27T08:54:34.423Z,98082.91
2018-07-27T08:57:03.676Z,98077.12
2018-07-27T08:59:32.746Z,98073.17
2018-07-27T09:02:01.901Z,98067.70
2018-07-27T09:04:31.121Z,98070.08
2018-07-27T09:06:59.697Z,98067.00
2018-07-27T09:09:28.622Z,98064.84
2018-07-27T09:11:57.380Z,98067.05
2018-07-27T09:14:25.928Z,98066.41
2018-07-27T09:16:54.845Z,98068.09
2018-07-27T09:19:24.361Z,98068.77
2018-07-27T09:21:54.377Z,98061.94
2018-07-27T09:24:23.342Z,98063.13
2018-07-27T09:26:52.022Z,98066.56
2018-07-27T09:29:21.313Z,98065.17
2018-07-27T09:31:50.228Z,98063.08
2018-07-27T09:34:18.798Z,98054.88
2018-07-27T09:36:47.645Z,98053.16
2018-07-27T09:39:16.179Z,98052.66
2018-07-27T09:41:44.986Z,98053.61
2018-07-27T09:44:14.242Z,98047.28
2018-07-27T09:46:43.315Z,98044.20
2018-07-27T09:49:12.055Z,98049.59
2018-07-27T09:51:40.687Z,98048.91
2018-07-27T09:54:09.579Z,98045.45
2018-07-27T09:56:38.250Z,98040.14
2018-07-27T09:59:07.437Z,98042.83
2018-07-27T10:01:36.122Z,98038.52
2018-07-27T10:04:05.233Z,98041.25
2018-07-27T10:06:34.457Z,98037.00
2018-07-27T10:09:03.403Z,98031.34
2018-07-27T10:11:32.253Z,98030.58
2018-07-27T10:14:00.982Z,98031.94
2018-07-27T10:16:29.544Z,98032.86
2018-07-27T10:18:58.101Z,98029.91
2018-07-27T10:21:26.882Z,98025.25
2018-07-27T10:23:55.491Z,98027.53
2018-07-27T10:26:24.282Z,98032.78
2018-07-27T10:28:52.931Z,98030.48
2018-07-27T10:31:22.456Z,98024.07
2018-07-27T10:33:51.024Z,98027.91
2018-07-27T10:36:19.723Z,98027.36
2018-07-27T10:38:48.743Z,98025.20
2018-07-27T10:41:17.454Z,98017.20
2018-07-27T10:43:46.205Z,98018.53
2018-07-27T10:46:15.174Z,98014.78
2018-07-27T10:48:43.797Z,98010.80
2018-07-27T10:51:12.461Z,98013.24
2018-07-27T10:53:41.342Z,98007.70
2018-07-27T10:56:10.354Z,98007.08
2018-07-27T10:58:39.470Z,97997.63
2018-07-27T11:01:08.581Z,97997.70
2018-07-27T11:03:37.482Z,97999.68
2018-07-27T11:06:06.197Z,97993.08
2018-07-27T11:08:35.153Z,97993.35
2018-07-27T11:11:03.924Z,97985.28
2018-07-27T11:13:32.587Z,97987.66
2018-07-27T11:16:01.197Z,97980.41
2018-07-27T11:18:30.174Z,97980.52
2018-07-27T11:20:58.823Z,97977.52
2018-07-27T11:23:27.562Z,97971.98
2018-07-27T11:25:56.675Z,97973.30
2018-07-27T11:28:25.440Z,97974.61
2018-07-27T11:30:53.964Z,97963.64
2018-07-27T11:33:22.695Z,97961.25
2018-07-27T11:35:51.838Z,97958.44
2018-07-27T11:38:20.503Z,97964.70
2018-07-27T11:40:49.352Z,97959.40
2018-07-27T11:43:19.246Z,97962.84
2018-07-27T11:45:48.303Z,97960.41
2018-07-27T11:48:17.123Z,97963.14
2018-07-27T11:50:45.733Z,97952.13
2018-07-27T11:53:14.565Z,97952.20
2018-07-27T11:55:43.600Z,97951.13
2018-07-27T11:58:12.241Z,97954.88
2018-07-27T12:00:40.821Z,97955.32
2018-07-27T12:03:09.489Z,97956.77
2018-07-27T12:05:38.315Z,97954.02
2018-07-27T12:08:07.204Z,97955.39
2018-07-27T12:10:36.215Z,97950.73
2018-07-27T12:13:05.521Z,97947.25
2018-07-27T12:15:34.150Z,97952.28
2018-07-27T12:18:03.384Z,97938.93
2018-07-27T12:20:32.886Z,97934.78
2018-07-27T12:23:02.318Z,97944.17
2018-07-27T12:25:31.008Z,97938.70
2018-07-27T12:27:59.842Z,97937.95
2018-07-27T12:30:28.934Z,97936.44
2018-07-27T12:32:58.017Z,97927.88
2018-07-27T12:35:27.687Z,97923.03
2018-07-27T12:37:57.240Z,97921.13
2018-07-27T12:40:26.138Z,97921.55
2018-07-27T12:42:55.054Z,97923.23
2018-07-27T12:45:23.815Z,97925.33
2018-07-27T12:47:52.583Z,97927.35
2018-07-27T12:50:21.478Z,97919.95
2018-07-27T12:52:50.275Z,97916.92
2018-07-27T12:55:19.031Z,97920.20
2018-07-27T12:57:47.905Z,97915.42
2018-07-27T13:00:16.694Z,97913.88
2018-07-27T13:02:46.011Z,97911.23
2018-07-27T13:05:14.779Z,97907.03
2018-07-27T13:07:43.681Z,97906.11
2018-07-27T13:10:12.502Z,97903.33
2018-07-27T13:12:41.138Z,97899.04
2018-07-27T13:15:09.965Z,97893.84
2018-07-27T13:17:39.144Z,97883.07
2018-07-27T13:20:08.141Z,97882.27
2018-07-27T13:22:36.894Z,97883.76
2018-07-27T13:25:05.854Z,97888.06
2018-07-27T13:27:35.099Z,97887.76
2018-07-27T13:30:04.034Z,97886.50
2018-07-27T13:32:32.841Z,97874.23
2018-07-27T13:35:01.705Z,97875.56
2018-07-27T13:40:01.887Z,97874.63
2018-07-27T13:42:32.719Z,97861.55
2018-07-27T13:45:01.606Z,97860.94
2018-07-27T13:47:31.039Z,97861.76
2018-07-27T13:49:59.642Z,97860.57
2018-07-27T13:52:28.370Z,97854.55
2018-07-27T13:54:57.326Z,97850.44
2018-07-27T13:57:26.049Z,97849.00
2018-07-27T13:59:54.976Z,97844.78
2018-07-27T14:02:23.476Z,97840.45
2018-07-27T14:04:52.338Z,97837.14
2018-07-27T14:07:20.997Z,97832.45
2018-07-27T14:09:49.773Z,97830.23
2018-07-27T14:12:19.300Z,97841.58
2018-07-27T14:14:48.768Z,97836.06
2018-07-27T14:17:17.477Z,97826.30
2018-07-27T14:19:46.240Z,97828.56
2018-07-27T14:22:15.005Z,97830.22
2018-07-27T14:24:43.643Z,97819.59
2018-07-27T14:27:12.528Z,97812.06
2018-07-27T14:29:41.347Z,97816.56
2018-07-27T14:32:10.750Z,97818.01
2018-07-27T14:34:39.388Z,97810.41
2018-07-27T14:37:09.056Z,97808.23
2018-07-27T14:39:38.055Z,97807.23
2018-07-27T14:42:06.762Z,97806.02
2018-07-27T14:44:35.502Z,97799.27
2018-07-27T14:47:03.406Z,97805.67
2018-07-27T14:49:32.112Z,97796.05
2018-07-27T14:52:00.464Z,97801.44
2018-07-27T14:54:29.807Z,97799.66
2018-07-27T14:56:59.146Z,97796.33
2018-07-27T14:59:28.188Z,97798.77
2018-07-27T15:01:56.887Z,97793.97
2018-07-27T15:04:25.795Z,97792.45
2018-07-27T15:06:54.814Z,97783.16
2018-07-27T15:09:23.618Z,97785.59
2018-07-27T15:11:52.325Z,97785.91
2018-07-27T15:14:21.528Z,97783.53
2018-07-27T15:16:50.039Z,97788.37
2018-07-27T15:19:18.801Z,97781.05
2018-07-27T15:21:47.652Z,97774.55
2018-07-27T15:24:16.881Z,97773.36
2018-07-27T15:26:45.846Z,97770.19
2018-07-27T15:29:14.577Z,97771.98
2018-07-27T15:31:43.401Z,97775.64
2018-07-27T15:34:12.252Z,97765.98
2018-07-27T15:36:40.962Z,97759.80
2018-07-27T15:39:10.237Z,97761.72
2018-07-27T15:41:38.949Z,97761.86
2018-07-27T15:44:07.951Z,97758.59
2018-07-27T15:46:36.703Z,97756.34
2018-07-27T15:49:06.149Z,97759.54
2018-07-27T15:51:35.085Z,97766.89
2018-07-27T15:54:03.840Z,97760.55
2018-07-27T15:56:32.536Z,97764.14
2018-07-27T15:59:01.356Z,97759.06
2018-07-27T16:01:30.070Z,97751.56
2018-07-27T16:03:58.840Z,97753.64
2018-07-27T16:06:27.595Z,97749.44
2018-07-27T16:08:56.265Z,97747.55
2018-07-27T16:11:24.904Z,97743.06
2018-07-27T16:13:54.757Z,97744.16
2018-07-27T16:16:23.323Z,97738.76
2018-07-27T16:18:52.208Z,97736.86
2018-07-27T16:21:21.217Z,97736.92
2018-07-27T16:23:50.002Z,97729.25
2018-07-27T16:26:18.842Z,97725.59
2018-07-27T16:28:47.601Z,97727.02
2018-07-27T16:31:16.384Z,97722.66
2018-07-27T16:33:44.945Z,97725.20
2018-07-27T16:36:13.515Z,97723.09
2018-07-27T16:38:43.006Z,97718.80
2018-07-27T16:41:11.761Z,97720.20
2018-07-27T16:43:40.299Z,97725.21
2018-07-27T16:46:08.940Z,97719.89
2018-07-27T16:48:38.798Z,97720.44
2018-07-27T16:51:07.373Z,97717.38
2018-07-27T16:53:35.906Z,97717.23
2018-07-27T16:56:04.644Z,97726.80
2018-07-27T16:58:33.547Z,97720.56
2018-07-27T17:01:02.279Z,97718.16
2018-07-27T17:03:32.664Z,97723.11
2018-07-27T17:06:01.789Z,97723.31
2018-07-27T17:08:31.272Z,97719.98
2018-07-27T17:11:00.092Z,97718.02
2018-07-27T17:13:28.870Z,97715.81
2018-07-27T17:15:57.697Z,97718.14
2018-07-27T17:18:26.543Z,97721.23
2018-07-27T17:20:55.768Z,97722.01
2018-07-27T17:23:25.200Z,97720.92
2018-07-27T17:25:53.884Z,97719.86
2018-07-27T17:28:23.487Z,97714.70
2018-07-27T17:30:52.750Z,97712.58
2018-07-27T17:33:21.561Z,97706.58
2018-07-27T17:35:50.976Z,97710.22
2018-07-27T17:38:19.732Z,97706.28
2018-07-27T17:40:48.806Z,97708.98
2018-07-27T17:43:17.664Z,97705.52
2018-07-27T17:45:46.712Z,97710.47
2018-07-27T17:48:16.372Z,97706.99
2018-07-27T17:50:45.608Z,97705.05
2018-07-27T17:53:14.792Z,97705.52
2018-07-27T17:55:44.567Z,97704.58
2018-07-27T17:58:13.564Z,97704.67
2018-07-27T18:00:42.088Z,97709.31
2018-07-27T18:03:10.704Z,97707.36
2018-07-27T18:05:39.522Z,97720.53
2018-07-27T18:08:08.207Z,97720.21
2018-07-27T18:10:37.787Z,97717.34
2018-07-27T18:13:06.542Z,97721.76
2018-07-27T18:15:35.406Z,97726.33
2018-07-27T18:18:04.272Z,97733.27
2018-07-27T18:20:33.018Z,97730.27
2018-07-27T18:23:02.120Z,97736.84
2018-07-27T18:25:30.911Z,97730.41
2018-07-27T18:27:59.700Z,97731.98
2018-07-27T18:30:29.134Z,97733.22
2018-07-27T18:32:58.364Z,97744.75
2018-07-27T18:35:27.040Z,97745.56
2018-07-27T18:37:55.662Z,97744.17
2018-07-27T18:40:24.313Z,97739.66
2018-07-27T18:42:53.157Z,97746.59
2018-07-27T18:45:22.703Z,97746.23
2018-07-27T18:47:51.482Z,97740.02
2018-07-27T18:50:20.585Z,97742.84
2018-07-27T18:52:49.355Z,97738.66
2018-07-27T18:55:18.207Z,97738.39
2018-07-27T18:57:46.870Z,97743.05
2018-07-27T19:00:15.945Z,97742.91
2018-07-27T19:02:44.786Z,97747.15
2018-07-27T19:05:13.381Z,97754.30
2018-07-27T19:07:42.040Z,97751.41
2018-07-27T19:10:12.400Z,97750.08
2018-07-27T19:12:41.244Z,97753.73
2018-07-27T19:15:10.443Z,97757.63
2018-07-27T19:17:39.383Z,97758.45
2018-07-27T19:20:08.075Z,97758.78
2018-07-27T19:22:36.676Z,97757.58
2018-07-27T19:25:05.445Z,97760.27
2018-07-27T19:27:34.507Z,97761.91
2018-07-27T19:30:03.527Z,97754.39
2018-07-27T19:32:32.338Z,97767.04
2018-07-27T19:35:01.490Z,97772.42
2018-07-27T19:37:30.747Z,97765.43
2018-07-27T19:39:59.448Z,97770.26
2018-07-27T19:42:28.709Z,97780.32
2018-07-27T19:44:57.489Z,97777.56
2018-07-27T19:47:26.145Z,97776.72
2018-07-27T19:49:54.782Z,97776.62
2018-07-27T19:52:23.551Z,97776.89
2018-07-27T19:54:52.249Z,97774.64
2018-07-27T19:57:20.995Z,97776.72
2018-07-27T19:59:49.784Z,97777.59
2018-07-27T20:02:18.572Z,97777.47
2018-07-27T20:04:47.557Z,97774.75
2018-07-27T20:07:16.227Z,97775.66
2018-07-27T20:09:45.053Z,97780.92
2018-07-27T20:12:13.841Z,97774.84
2018-07-27T20:14:42.396Z,97771.75
2018-07-27T20:17:11.191Z,97770.51
2018-07-27T20:19:39.825Z,97772.73
2018-07-27T20:22:09.292Z,97767.34
2018-07-27T20:24:38.251Z,97775.08
2018-07-27T20:27:07.254Z,97771.93
2018-07-27T20:29:36.072Z,97777.98
2018-07-27T20:32:04.838Z,97775.83
2018-07-27T20:34:33.500Z,97777.33
2018-07-27T20:37:02.268Z,97768.03
2018-07-27T20:39:31.118Z,97774.52
2018-07-27T20:41:59.697Z,97766.91
2018-07-27T20:44:28.576Z,97770.33
2018-07-27T20:46:57.277Z,97770.98
2018-07-27T20:49:26.079Z,97772.15
2018-07-27T20:51:54.634Z,97772.70
2018-07-27T20:54:23.247Z,97768.45
2018-07-27T20:56:52.097Z,97767.89
2018-07-27T20:59:21.562Z,97765.05
2018-07-27T21:01:50.536Z,97769.90
2018-07-27T21:04:19.364Z,97762.09
2018-07-27T21:06:48.205Z,97767.14
2018-07-27T21:09:17.095Z,97768.44
2018-07-27T21:11:49.123Z,97766.52
2018-07-27T21:14:17.675Z,97777.80
2018-07-27T21:16:46.550Z,97775.37
2018-07-27T21:19:15.477Z,97774.06
2018-07-27T21:21:44.027Z,97773.92
2018-07-27T21:24:13.362Z,97781.04
2018-07-27T21:26:41.605Z,97780.33
2018-07-27T21:29:10.435Z,97782.58
2018-07-27T21:31:39.183Z,97779.30
2018-07-27T21:34:08.027Z,97783.13
2018-07-27T21:36:36.760Z,97781.37
2018-07-27T21:39:08.781Z,97783.52
2018-07-27T21:41:38.022Z,97779.91
2018-07-27T21:44:06.823Z,97775.34
2018-07-27T21:46:36.011Z,97774.50
2018-07-27T21:49:04.715Z,97775.55
2018-07-27T21:51:33.623Z,97770.41
2018-07-27T21:54:02.303Z,97769.67
2018-07-27T21:56:30.897Z,97773.02
2018-07-27T21:59:00.159Z,97768.02
2018-07-27T22:01:29.079Z,97759.75
2018-07-27T22:03:58.167Z,97762.63
2018-07-27T22:06:31.942Z,97755.23
2018-07-27T22:09:00.446Z,97754.00
2018-07-27T22:11:32.843Z,97746.95
2018-07-27T22:14:15.408Z,97745.40
2018-07-27T22:16:57.961Z,97742.80
2018-07-27T22:20:11.479Z,97747.20
2018-07-27T22:22:41.000Z,97751.23
2018-07-27T22:25:10.558Z,97752.70
2018-07-27T22:27:39.078Z,97752.93
2018-07-27T22:30:20.128Z,97755.41
2018-07-27T22:32:52.578Z,97746.92
2018-07-27T22:35:22.158Z,97749.41
2018-07-27T22:37:51.954Z,97741.38
2018-07-27T22:40:21.238Z,97736.67
2018-07-27T22:42:49.764Z,97735.00
2018-07-27T22:45:18.577Z,97736.60
2018-07-27T22:47:48.084Z,97733.98
2018-07-27T22:50:17.402Z,97728.95
2018-07-27T22:52:47.240Z,97716.51
2018-07-27T22:55:16.003Z,97716.09
2018-07-27T22:57:44.699Z,97722.79
2018-07-27T23:00:15.451Z,97724.38
2018-07-27T23:02:45.254Z,97722.25
2018-07-27T23:05:14.308Z,97719.58
2018-07-27T23:07:43.265Z,97719.69
2018-07-27T23:10:11.836Z,97718.08
2018-07-27T23:12:40.724Z,97726.48
2018-07-27T23:15:11.072Z,97722.98
2018-07-27T23:17:39.803Z,97724.88
2018-07-27T23:20:12.228Z,97728.53
2018-07-27T23:22:41.219Z,97719.64
2018-07-27T23:25:09.794Z,97718.19
2018-07-27T23:27:38.782Z,97724.88
2018-07-27T23:30:09.592Z,97721.09
2018-07-27T23:32:38.193Z,97728.55
2018-07-27T23:35:07.314Z,97719.88
2018-07-27T23:37:36.746Z,97717.14
2018-07-27T23:40:05.899Z,97714.23
2018-07-27T23:42:34.753Z,97711.73
2018-07-27T23:45:03.482Z,97705.59
2018-07-27T23:47:32.162Z,97705.83
2018-07-27T23:50:01.144Z,97700.06
2018-07-27T23:52:30.105Z,97700.44
2018-07-27T23:54:58.952Z,97704.38
2018-07-27T23:57:27.650Z,97711.62
2018-07-27T23:59:56.242Z,97710.91
